createdAt,value
2023-12-08T00:01:14.565Z,7.47
2023-12-08T00:03:44.213Z,8.80
2023-12-08T00:06:12.977Z,9.77
2023-12-08T00:08:41.805Z,9.20
2023-12-08T00:11:12.269Z,7.50
2023-12-08T00:13:40.325Z,8.43
2023-12-08T00:16:09.933Z,7.90
2023-12-08T00:18:39.146Z,7.68
2023-12-08T00:21:09.137Z,7.50
2023-12-08T00:23:37.355Z,7.35
2023-12-08T00:26:05.643Z,8.63
2023-12-08T00:28:33.697Z,6.68
2023-12-08T00:31:01.735Z,6.22
2023-12-08T00:33:30.193Z,7.68
2023-12-08T00:35:59.100Z,6.57
2023-12-08T00:38:28.936Z,7.85
2023-12-08T00:40:57.916Z,7.80
2023-12-08T00:43:25.975Z,6.80
2023-12-08T00:45:53.957Z,7.15
2023-12-08T00:48:22.188Z,8.45
2023-12-08T00:50:50.502Z,7.38
2023-12-08T00:53:19.610Z,6.55
2023-12-08T00:55:52.582Z,7.63
2023-12-08T00:58:20.588Z,7.63
2023-12-08T01:00:48.799Z,8.63
2023-12-08T01:03:16.952Z,8.85
2023-12-08T01:05:44.955Z,7.68
2023-12-08T01:08:13.050Z,8.45
2023-12-08T01:10:41.200Z,6.47
2023-12-08T01:13:10.546Z,7.05
2023-12-08T01:15:38.574Z,5.85
2023-12-08T01:18:07.171Z,6.22
2023-12-08T01:20:42.739Z,4.95
2023-12-08T01:23:10.769Z,5.90
2023-12-08T01:25:38.859Z,5.95
2023-12-08T01:28:06.930Z,7.03
2023-12-08T01:30:36.348Z,6.75
2023-12-08T01:33:04.665Z,7.05
2023-12-08T01:35:32.793Z,6.22
2023-12-08T01:38:00.740Z,7.70
2023-12-08T01:40:28.703Z,6.10
2023-12-08T01:42:56.700Z,6.68
2023-12-08T01:45:24.656Z,6.68
2023-12-08T01:47:54.124Z,5.45
2023-12-08T01:50:22.172Z,9.90
2023-12-08T01:52:50.302Z,8.38
2023-12-08T01:55:18.445Z,7.13
2023-12-08T01:57:46.406Z,7.18
2023-12-08T02:00:15.658Z,7.10
2023-12-08T02:02:44.676Z,6.50
2023-12-08T02:05:14.352Z,6.55
2023-12-08T02:07:42.322Z,6.38
2023-12-08T02:10:10.424Z,5.80
2023-12-08T02:12:38.413Z,5.28
2023-12-08T02:15:07.339Z,5.38
2023-12-08T02:17:39.503Z,5.00
2023-12-08T02:20:10.633Z,5.30
2023-12-08T02:22:40.057Z,6.45
2023-12-08T02:25:10.336Z,5.72
2023-12-08T02:27:38.319Z,6.40
2023-12-08T02:30:07.792Z,6.68
2023-12-08T02:32:39.496Z,6.00
2023-12-08T02:35:10.111Z,6.05
2023-12-08T02:37:39.913Z,5.68
2023-12-08T02:40:10.588Z,7.22
2023-12-08T02:42:38.766Z,5.25
2023-12-08T02:45:08.045Z,7.30
2023-12-08T02:47:36.083Z,4.60
2023-12-08T02:50:04.623Z,6.55
2023-12-08T02:52:32.663Z,7.30
2023-12-08T02:55:00.604Z,7.00
2023-12-08T02:57:30.210Z,6.20
2023-12-08T02:59:58.242Z,7.07
2023-12-08T03:02:26.338Z,6.78
2023-12-08T03:04:57.034Z,5.75
2023-12-08T03:07:25.539Z,6.30
2023-12-08T03:09:53.760Z,6.50
2023-12-08T03:12:21.797Z,6.60
2023-12-08T03:14:51.237Z,7.00
2023-12-08T03:17:19.306Z,5.47
2023-12-08T03:19:47.432Z,5.82
2023-12-08T03:22:15.449Z,6.22
2023-12-08T03:24:43.461Z,6.50
2023-12-08T03:27:13.820Z,5.80
2023-12-08T03:29:42.440Z,6.45
2023-12-08T03:32:11.780Z,6.32
2023-12-08T03:34:40.049Z,7.43
2023-12-08T03:37:07.985Z,6.10
2023-12-08T03:39:35.996Z,6.00
2023-12-08T03:42:04.172Z,6.60
2023-12-08T03:44:32.253Z,6.72
2023-12-08T03:47:00.217Z,6.60
2023-12-08T03:49:29.695Z,6.00
2023-12-08T03:51:57.672Z,6.32
2023-12-08T03:54:25.685Z,5.80
2023-12-08T03:56:53.789Z,7.20
2023-12-08T03:59:21.898Z,6.85
2023-12-08T04:01:53.525Z,6.63
2023-12-08T04:04:26.092Z,7.50
2023-12-08T04:06:56.890Z,5.70
2023-12-08T04:09:26.768Z,7.00
2023-12-08T04:11:56.348Z,6.70
2023-12-08T04:14:24.358Z,7.03
2023-12-08T04:16:52.898Z,7.53
2023-12-08T04:19:22.075Z,7.47
2023-12-08T04:21:50.347Z,7.70
2023-12-08T04:24:19.882Z,8.30
2023-12-08T04:26:48.067Z,7.15
2023-12-08T04:29:16.087Z,7.20
2023-12-08T04:31:46.580Z,8.15
2023-12-08T04:34:14.772Z,7.13
2023-12-08T04:36:42.787Z,8.57
2023-12-08T04:39:10.989Z,6.85
2023-12-08T04:41:42.825Z,6.93
2023-12-08T04:44:10.864Z,6.72
2023-12-08T04:46:38.798Z,7.10
2023-12-08T04:49:07.008Z,7.60
2023-12-08T04:51:36.698Z,8.13
2023-12-08T04:54:04.954Z,6.90
2023-12-08T04:56:33.322Z,8.30
2023-12-08T04:59:02.703Z,7.55
2023-12-08T05:01:30.708Z,6.97
2023-12-08T05:03:59.335Z,7.07
2023-12-08T05:06:27.915Z,7.30
2023-12-08T05:08:56.078Z,8.50
2023-12-08T05:11:27.038Z,7.55
2023-12-08T05:13:54.997Z,6.28
2023-12-08T05:16:24.357Z,6.95
2023-12-08T05:18:52.404Z,17.20
2023-12-08T05:21:20.446Z,10.73
2023-12-08T05:23:48.491Z,10.77
2023-12-08T05:26:16.451Z,7.63
2023-12-08T05:28:44.463Z,7.93
2023-12-08T05:31:13.639Z,8.10
2023-12-08T05:33:43.722Z,8.20
2023-12-08T05:36:12.683Z,8.10
2023-12-08T05:38:40.799Z,7.43
2023-12-08T05:41:08.842Z,7.90
2023-12-08T05:43:36.799Z,9.40
2023-12-08T05:46:04.912Z,8.52
2023-12-08T05:48:33.092Z,10.85
2023-12-08T05:51:05.658Z,17.33
2023-12-08T05:53:33.817Z,14.45
2023-12-08T05:56:01.791Z,13.30
2023-12-08T05:58:30.192Z,11.50
2023-12-08T06:00:58.599Z,10.13
2023-12-08T06:03:26.703Z,10.55
2023-12-08T06:05:55.698Z,12.63
2023-12-08T06:08:25.118Z,16.50
2023-12-08T06:10:53.126Z,17.02
2023-12-08T06:13:21.260Z,15.38
2023-12-08T06:15:49.247Z,10.07
2023-12-08T06:18:17.410Z,13.10
2023-12-08T06:20:45.503Z,11.82
2023-12-08T06:23:13.567Z,13.73
2023-12-08T06:25:42.957Z,9.00
2023-12-08T06:28:11.123Z,11.40
2023-12-08T06:30:39.682Z,11.68
2023-12-08T06:33:08.066Z,11.38
2023-12-08T06:35:36.129Z,12.00
2023-12-08T06:38:05.842Z,11.20
2023-12-08T06:40:33.898Z,12.35
2023-12-08T06:43:06.490Z,11.45
2023-12-08T06:45:34.681Z,10.02
2023-12-08T06:48:03.035Z,10.73
2023-12-08T06:50:31.842Z,14.73
2023-12-08T06:52:59.951Z,11.88
2023-12-08T06:55:28.026Z,11.30
2023-12-08T06:57:55.967Z,11.05
2023-12-08T07:00:25.481Z,11.45
2023-12-08T07:02:54.906Z,10.05
2023-12-08T07:05:24.700Z,10.73
2023-12-08T07:07:53.192Z,11.65
2023-12-08T07:10:21.381Z,9.95
2023-12-08T07:12:49.758Z,11.60
2023-12-08T07:15:17.900Z,17.10
2023-12-08T07:17:47.565Z,16.23
2023-12-08T07:20:18.310Z,14.55
2023-12-08T07:22:46.334Z,13.13
2023-12-08T07:25:16.147Z,11.30
2023-12-08T07:27:44.684Z,11.07
2023-12-08T07:30:15.097Z,11.27
2023-12-08T07:32:43.818Z,11.77
2023-12-08T07:35:13.477Z,11.35
2023-12-08T07:37:42.372Z,11.95
2023-12-08T07:40:13.395Z,10.73
2023-12-08T07:42:43.086Z,10.48
2023-12-08T07:45:12.166Z,13.10
2023-12-08T07:47:40.659Z,12.37
2023-12-08T07:50:10.394Z,10.80
2023-12-08T07:52:40.159Z,11.80
2023-12-08T07:55:08.946Z,14.05
2023-12-08T07:57:37.176Z,13.63
2023-12-08T08:00:07.387Z,13.80
2023-12-08T08:02:35.570Z,14.73
2023-12-08T08:05:03.678Z,15.50
2023-12-08T08:07:32.307Z,15.40
2023-12-08T08:10:07.992Z,19.23
2023-12-08T08:12:36.128Z,19.20
2023-12-08T08:15:04.840Z,18.63
2023-12-08T08:17:33.159Z,26.63
2023-12-08T08:20:01.481Z,26.83
2023-12-08T08:22:32.963Z,25.90
2023-12-08T08:25:01.878Z,21.67
2023-12-08T08:27:33.280Z,16.20
2023-12-08T08:30:01.573Z,13.63
2023-12-08T08:32:29.981Z,17.20
2023-12-08T08:34:59.820Z,16.63
2023-12-08T08:37:30.934Z,17.13
2023-12-08T08:39:59.152Z,14.80
2023-12-08T08:42:27.493Z,12.60
2023-12-08T08:44:56.893Z,14.63
2023-12-08T08:47:25.086Z,14.50
2023-12-08T08:49:57.040Z,16.10
2023-12-08T08:52:25.313Z,14.67
2023-12-08T08:54:53.631Z,13.57
2023-12-08T08:57:21.674Z,13.40
2023-12-08T08:59:49.853Z,18.27
2023-12-08T09:02:19.157Z,14.83
2023-12-08T09:04:47.206Z,13.50
2023-12-08T09:07:15.437Z,13.87
2023-12-08T09:09:44.887Z,15.53
2023-12-08T09:12:15.236Z,14.20
2023-12-08T09:14:43.331Z,12.93
2023-12-08T09:17:11.346Z,13.67
2023-12-08T09:19:48.349Z,13.00
2023-12-08T09:22:16.732Z,15.67
2023-12-08T09:24:44.772Z,13.70
2023-12-08T09:27:12.834Z,17.03
2023-12-08T09:29:40.870Z,15.73
2023-12-08T09:32:09.233Z,14.43
2023-12-08T09:34:37.432Z,12.17
2023-12-08T09:37:26.427Z,13.10
2023-12-08T09:39:55.254Z,12.83
2023-12-08T09:42:29.592Z,11.17
2023-12-08T09:44:57.655Z,9.57
2023-12-08T09:47:28.887Z,8.67
2023-12-08T09:49:57.519Z,9.77
2023-12-08T09:52:26.873Z,9.67
2023-12-08T09:54:54.988Z,9.27
2023-12-08T09:57:23.735Z,8.83
2023-12-08T09:59:53.001Z,8.73
2023-12-08T10:02:21.029Z,9.83
2023-12-08T10:04:49.061Z,10.17
2023-12-08T10:07:17.123Z,10.43
2023-12-08T10:09:46.522Z,10.40
2023-12-08T10:12:14.822Z,11.33
2023-12-08T10:14:52.831Z,10.53
2023-12-08T10:17:21.512Z,9.50
2023-12-08T10:19:50.610Z,10.47
2023-12-08T10:22:19.797Z,10.47
2023-12-08T10:24:49.186Z,9.00
2023-12-08T10:27:17.182Z,9.10
2023-12-08T10:29:45.242Z,8.67
2023-12-08T10:32:15.997Z,7.90
2023-12-08T10:34:45.096Z,9.63
2023-12-08T10:37:13.104Z,7.90
2023-12-08T10:39:43.036Z,8.10
2023-12-08T10:42:12.856Z,9.07
2023-12-08T10:44:41.677Z,9.00
2023-12-08T10:47:09.761Z,7.93
2023-12-08T10:49:39.010Z,10.10
2023-12-08T10:52:08.359Z,8.90
2023-12-08T10:54:36.477Z,9.43
2023-12-08T10:57:04.496Z,10.27
2023-12-08T10:59:34.756Z,10.20
2023-12-08T11:02:05.329Z,11.43
2023-12-08T11:04:36.189Z,10.13
2023-12-08T11:07:12.924Z,10.30
2023-12-08T11:09:41.981Z,12.27
2023-12-08T11:12:10.863Z,11.03
2023-12-08T11:14:43.680Z,10.40
2023-12-08T11:17:18.948Z,11.90
2023-12-08T11:19:47.419Z,10.40
2023-12-08T11:22:15.567Z,10.47
2023-12-08T11:24:43.899Z,11.00
2023-12-08T11:27:17.145Z,9.60
2023-12-08T11:29:52.402Z,9.40
2023-12-08T11:32:22.877Z,9.63
2023-12-08T11:34:55.500Z,11.40
2023-12-08T11:37:24.586Z,10.30
2023-12-08T11:40:01.292Z,11.77
2023-12-08T11:42:29.997Z,11.70
2023-12-08T11:45:00.385Z,12.07
2023-12-08T11:47:28.904Z,12.30
2023-12-08T11:49:57.365Z,11.40
2023-12-08T11:52:28.257Z,11.57
2023-12-08T11:55:10.423Z,11.87
2023-12-08T11:57:43.703Z,11.57
2023-12-08T12:00:14.570Z,12.40
2023-12-08T12:02:43.888Z,11.93
2023-12-08T12:05:12.524Z,13.00
2023-12-08T12:07:40.871Z,13.60
2023-12-08T12:10:13.142Z,12.57
2023-12-08T12:12:43.890Z,11.70
2023-12-08T12:15:13.541Z,12.73
2023-12-08T12:17:43.041Z,13.73
2023-12-08T12:20:12.503Z,15.57
2023-12-08T12:22:41.124Z,14.67
2023-12-08T12:25:09.496Z,12.43
2023-12-08T12:27:40.475Z,12.43
2023-12-08T12:30:09.852Z,12.47
2023-12-08T12:32:39.629Z,13.53
2023-12-08T12:35:09.973Z,14.60
2023-12-08T12:37:38.039Z,17.97
2023-12-08T12:40:09.439Z,23.17
2023-12-08T12:42:42.953Z,16.47
2023-12-08T12:45:12.257Z,24.67
2023-12-08T12:47:42.438Z,40.50
2023-12-08T12:50:11.701Z,16.40
2023-12-08T12:52:41.901Z,13.60
2023-12-08T12:55:25.945Z,14.20
2023-12-08T12:57:54.117Z,17.33
2023-12-08T13:00:34.156Z,14.07
2023-12-08T13:03:11.817Z,15.27
2023-12-08T13:05:49.108Z,18.90
2023-12-08T13:08:18.278Z,13.90
2023-12-08T13:10:47.404Z,13.97
2023-12-08T13:13:15.641Z,14.60
2023-12-08T13:15:45.961Z,13.13
2023-12-08T13:18:16.620Z,13.47
2023-12-08T13:20:45.190Z,13.57
2023-12-08T13:23:13.727Z,25.50
2023-12-08T13:25:41.932Z,13.70
2023-12-08T13:28:10.695Z,17.87
2023-12-08T13:30:38.744Z,22.40
2023-12-08T13:33:07.832Z,20.67
2023-12-08T13:35:37.691Z,48.30
2023-12-08T13:38:05.981Z,21.47
2023-12-08T13:40:34.359Z,21.20
2023-12-08T13:43:03.030Z,20.97
2023-12-08T13:45:31.998Z,16.80
2023-12-08T13:48:00.750Z,15.97
2023-12-08T13:50:28.930Z,15.80
2023-12-08T13:52:58.869Z,15.23
2023-12-08T13:55:30.177Z,14.60
2023-12-08T13:58:01.465Z,16.00
2023-12-08T14:00:29.897Z,15.47
2023-12-08T14:02:58.387Z,15.93
2023-12-08T14:05:26.928Z,14.53
2023-12-08T14:07:55.392Z,15.63
2023-12-08T14:10:25.056Z,16.67
2023-12-08T14:12:53.250Z,15.80
2023-12-08T14:15:21.569Z,15.93
2023-12-08T14:17:50.033Z,15.33
2023-12-08T14:20:18.330Z,15.60
2023-12-08T14:22:47.619Z,20.20
2023-12-08T14:25:16.043Z,18.70
2023-12-08T14:27:45.746Z,16.07
2023-12-08T14:30:14.614Z,16.60
2023-12-08T14:32:43.007Z,16.20
2023-12-08T14:35:19.172Z,17.13
2023-12-08T14:37:54.725Z,15.60
2023-12-08T14:40:23.426Z,15.30
2023-12-08T14:42:54.899Z,14.37
2023-12-08T14:45:23.309Z,13.73
2023-12-08T14:47:51.681Z,16.20
2023-12-08T14:50:20.557Z,14.57
2023-12-08T14:52:48.843Z,14.57
2023-12-08T14:55:18.725Z,18.77
2023-12-08T14:57:47.113Z,19.57
2023-12-08T15:00:17.673Z,20.00
2023-12-08T15:02:45.884Z,16.97
2023-12-08T15:05:14.222Z,16.30
2023-12-08T15:07:43.072Z,16.50
2023-12-08T15:10:11.487Z,14.10
2023-12-08T15:12:39.614Z,15.37
2023-12-08T15:15:09.567Z,14.83
2023-12-08T15:17:39.749Z,14.10
2023-12-08T15:20:10.245Z,19.33
2023-12-08T15:22:40.912Z,16.30
2023-12-08T15:25:09.892Z,14.90
2023-12-08T15:27:38.305Z,14.10
2023-12-08T15:30:08.771Z,14.23
2023-12-08T15:32:38.316Z,14.50
2023-12-08T15:35:07.012Z,13.40
2023-12-08T15:37:35.078Z,13.30
2023-12-08T15:40:03.220Z,14.03
2023-12-08T15:42:31.260Z,15.00
2023-12-08T15:44:59.813Z,13.93
2023-12-08T15:47:28.172Z,12.60
2023-12-08T15:49:58.393Z,13.47
2023-12-08T15:52:26.607Z,27.43
2023-12-08T15:54:55.326Z,15.20
2023-12-08T15:57:23.593Z,18.20
2023-12-08T15:59:51.670Z,15.07
2023-12-08T16:02:20.403Z,16.77
2023-12-08T16:04:48.807Z,18.57
2023-12-08T16:07:18.252Z,16.00
2023-12-08T16:09:46.466Z,19.80
2023-12-08T16:12:14.487Z,15.10
2023-12-08T16:14:44.330Z,14.60
2023-12-08T16:17:14.481Z,15.60
2023-12-08T16:19:44.266Z,20.07
2023-12-08T16:22:12.598Z,15.70
2023-12-08T16:24:43.956Z,16.30
2023-12-08T16:27:12.127Z,16.07
2023-12-08T16:29:40.307Z,17.20
2023-12-08T16:32:08.276Z,15.77
2023-12-08T16:34:36.278Z,17.07
2023-12-08T16:37:05.347Z,16.43
2023-12-08T16:39:33.788Z,17.23
2023-12-08T16:42:03.322Z,18.43
2023-12-08T16:44:32.127Z,15.23
2023-12-08T16:47:00.137Z,14.80
2023-12-08T16:49:28.395Z,16.00
2023-12-08T16:51:56.480Z,14.97
2023-12-08T16:54:25.015Z,14.37
2023-12-08T16:56:54.597Z,13.60
2023-12-08T16:59:24.028Z,15.07
2023-12-08T17:01:51.944Z,14.20
2023-12-08T17:04:20.043Z,14.60
2023-12-08T17:06:48.090Z,14.77
2023-12-08T17:09:17.092Z,15.40
2023-12-08T17:11:48.175Z,16.40
2023-12-08T17:14:16.480Z,16.83
2023-12-08T17:16:46.373Z,15.63
2023-12-08T17:19:14.429Z,16.57
2023-12-08T17:21:42.489Z,14.87
2023-12-08T17:24:10.756Z,13.57
2023-12-08T17:26:40.892Z,15.73
2023-12-08T17:29:10.167Z,15.63
2023-12-08T17:31:38.722Z,16.60
2023-12-08T17:34:16.318Z,16.97
2023-12-08T17:36:49.899Z,17.17
2023-12-08T17:39:18.928Z,16.63
2023-12-08T17:41:48.178Z,15.10
2023-12-08T17:44:16.447Z,16.00
2023-12-08T17:46:44.507Z,15.20
2023-12-08T17:49:14.098Z,14.60
2023-12-08T17:51:42.280Z,14.93
2023-12-08T17:54:10.308Z,15.47
2023-12-08T17:56:38.333Z,15.33
2023-12-08T17:59:07.027Z,15.00
2023-12-08T18:01:35.023Z,15.60
2023-12-08T18:04:03.789Z,16.43
2023-12-08T18:06:33.789Z,17.07
2023-12-08T18:09:04.958Z,14.93
2023-12-08T18:11:33.775Z,14.67
2023-12-08T18:14:01.752Z,15.10
2023-12-08T18:16:31.216Z,15.73
2023-12-08T18:19:00.207Z,16.13
2023-12-08T18:21:29.973Z,14.80
2023-12-08T18:24:00.157Z,19.40
2023-12-08T18:26:29.121Z,17.67
2023-12-08T18:29:08.170Z,18.57
2023-12-08T18:31:39.334Z,17.77
2023-12-08T18:34:08.159Z,16.77
2023-12-08T18:36:36.967Z,18.57
2023-12-08T18:39:07.218Z,18.40
2023-12-08T18:41:36.487Z,17.97
2023-12-08T18:44:04.758Z,19.43
2023-12-08T18:46:34.210Z,19.83
2023-12-08T18:49:04.715Z,21.60
2023-12-08T18:51:34.848Z,21.07
2023-12-08T18:54:03.276Z,17.30
2023-12-08T18:56:33.234Z,18.00
2023-12-08T18:59:01.628Z,17.33
2023-12-08T19:01:29.899Z,18.73
2023-12-08T19:03:58.526Z,19.00
2023-12-08T19:06:26.699Z,19.27
2023-12-08T19:08:55.059Z,19.00
2023-12-08T19:11:23.100Z,18.83
2023-12-08T19:13:53.009Z,17.80
2023-12-08T19:16:21.410Z,19.00
2023-12-08T19:18:50.602Z,18.43
2023-12-08T19:21:18.733Z,18.33
2023-12-08T19:23:47.554Z,17.90
2023-12-08T19:26:16.007Z,17.53
2023-12-08T19:28:45.864Z,16.40
2023-12-08T19:31:16.071Z,19.30
2023-12-08T19:33:44.553Z,20.57
2023-12-08T19:36:16.140Z,20.07
2023-12-08T19:38:45.505Z,25.10
2023-12-08T19:41:13.796Z,29.00
2023-12-08T19:43:42.162Z,30.60
2023-12-08T19:46:10.699Z,24.20
2023-12-08T19:48:40.594Z,23.67
2023-12-08T19:51:09.148Z,22.83
2023-12-08T19:53:37.985Z,22.80
2023-12-08T19:56:07.128Z,25.80
2023-12-08T19:58:35.846Z,29.90
2023-12-08T20:01:06.409Z,29.40
2023-12-08T20:03:34.745Z,25.30
2023-12-08T20:06:05.109Z,25.37
2023-12-08T20:08:33.684Z,24.30
2023-12-08T20:11:02.467Z,22.13
2023-12-08T20:13:30.773Z,23.57
2023-12-08T20:15:59.115Z,23.20
2023-12-08T20:18:28.735Z,21.73
2023-12-08T20:20:57.236Z,21.20
2023-12-08T20:23:27.669Z,20.20
2023-12-08T20:25:55.888Z,19.73
2023-12-08T20:28:24.231Z,19.30
2023-12-08T20:30:52.540Z,19.30
2023-12-08T20:33:21.137Z,18.20
2023-12-08T20:35:49.565Z,21.07
2023-12-08T20:38:18.158Z,20.43
2023-12-08T20:40:48.647Z,23.70
2023-12-08T20:43:18.571Z,22.23
2023-12-08T20:45:48.681Z,22.37
2023-12-08T20:48:17.181Z,19.43
2023-12-08T20:50:45.621Z,20.57
2023-12-08T20:53:14.958Z,20.20
2023-12-08T20:55:43.278Z,19.80
2023-12-08T20:58:12.978Z,21.20
2023-12-08T21:00:41.935Z,18.97
2023-12-08T21:03:10.623Z,17.90
2023-12-08T21:05:39.064Z,18.77
2023-12-08T21:08:07.440Z,19.07
2023-12-08T21:10:36.234Z,19.93
2023-12-08T21:13:04.522Z,18.43
2023-12-08T21:15:34.429Z,19.07
2023-12-08T21:18:02.817Z,16.93
2023-12-08T21:20:31.058Z,19.23
2023-12-08T21:22:59.744Z,19.63
2023-12-08T21:25:27.728Z,22.13
2023-12-08T21:27:58.618Z,21.97
2023-12-08T21:30:27.021Z,20.40
2023-12-08T21:32:56.966Z,21.73
2023-12-08T21:35:27.148Z,22.33
2023-12-08T21:37:55.431Z,22.03
2023-12-08T21:40:23.487Z,22.60
2023-12-08T21:42:54.129Z,22.60
2023-12-08T21:45:22.772Z,22.07
2023-12-08T21:47:51.431Z,22.20
2023-12-08T21:50:21.440Z,22.47
2023-12-08T21:52:53.205Z,22.83
2023-12-08T21:55:22.137Z,22.17
2023-12-08T21:57:50.829Z,22.50
2023-12-08T22:00:19.607Z,22.43
2023-12-08T22:02:48.098Z,22.10
2023-12-08T22:05:16.903Z,22.13
2023-12-08T22:07:46.935Z,22.70
2023-12-08T22:10:15.193Z,22.30
2023-12-08T22:12:43.639Z,22.87
2023-12-08T22:15:12.445Z,21.30
2023-12-08T22:17:40.805Z,20.17
2023-12-08T22:20:10.659Z,20.23
2023-12-08T22:22:41.996Z,20.57
2023-12-08T22:25:12.642Z,22.93
2023-12-08T22:27:41.005Z,21.33
2023-12-08T22:30:10.323Z,24.97
2023-12-08T22:32:38.926Z,26.13
2023-12-08T22:35:08.603Z,25.07
2023-12-08T22:37:39.255Z,25.80
2023-12-08T22:40:09.124Z,25.60
2023-12-08T22:42:39.030Z,26.07
2023-12-08T22:45:08.592Z,24.90
2023-12-08T22:47:36.975Z,26.90
2023-12-08T22:50:05.881Z,25.10
2023-12-08T22:52:34.683Z,26.03
2023-12-08T22:55:03.103Z,24.73
2023-12-08T22:57:31.650Z,19.87
2023-12-08T23:00:01.800Z,21.93
2023-12-08T23:02:30.368Z,24.57
2023-12-08T23:04:58.965Z,19.60
2023-12-08T23:07:27.508Z,18.60
2023-12-08T23:09:56.473Z,17.73
2023-12-08T23:12:26.940Z,22.20
2023-12-08T23:14:55.512Z,26.23
2023-12-08T23:17:25.394Z,23.50
2023-12-08T23:19:53.755Z,22.10
2023-12-08T23:22:21.982Z,19.40
2023-12-08T23:24:50.556Z,19.57
2023-12-08T23:27:19.002Z,18.80
2023-12-08T23:29:47.548Z,18.90
2023-12-08T23:32:16.234Z,19.47
2023-12-08T23:34:45.761Z,20.13
2023-12-08T23:37:14.332Z,21.03
2023-12-08T23:39:42.678Z,20.40
2023-12-08T23:42:10.885Z,21.07
2023-12-08T23:44:39.243Z,20.37
2023-12-08T23:47:07.614Z,20.63
2023-12-08T23:49:36.308Z,19.80
2023-12-08T23:52:06.739Z,17.20
2023-12-08T23:54:35.022Z,19.53
2023-12-08T23:57:03.371Z,19.17
2023-12-08T23:59:31.745Z,20.93
